sensor_id;sensor_type;location;lat;lon;timestamp;pressure;altitude;pressure_sealevel;temperature;humidity
22662;BME280;11497;52.222;21.246;2023-04-03T00:01:15;100920.88;;;2.06;61.99
22662;BME280;11497;52.222;21.246;2023-04-03T00:03:44;100919.06;;;1.96;61.83
22662;BME280;11497;52.222;21.246;2023-04-03T00:06:12;100924.16;;;1.90;61.23
22662;BME280;11497;52.222;21.246;2023-04-03T00:08:41;100917.19;;;1.83;61.65
22662;BME280;11497;52.222;21.246;2023-04-03T00:11:09;100933.44;;;1.73;61.50
22662;BME280;11497;52.222;21.246;2023-04-03T00:13:38;100924.69;;;1.60;61.90
22662;BME280;11497;52.222;21.246;2023-04-03T00:16:07;100934.06;;;1.53;62.68
22662;BME280;11497;52.222;21.246;2023-04-03T00:18:36;100929.06;;;1.65;62.47
22662;BME280;11497;52.222;21.246;2023-04-03T00:21:04;100932.38;;;1.55;62.62
22662;BME280;11497;52.222;21.246;2023-04-03T00:23:33;100930.72;;;1.60;62.07
22662;BME280;11497;52.222;21.246;2023-04-03T00:26:02;100940.84;;;1.45;62.50
22662;BME280;11497;52.222;21.246;2023-04-03T00:28:30;100941.63;;;1.40;62.85
22662;BME280;11497;52.222;21.246;2023-04-03T00:30:58;100937.25;;;1.34;62.30
22662;BME280;11497;52.222;21.246;2023-04-03T00:33:26;100940.59;;;1.24;62.53
22662;BME280;11497;52.222;21.246;2023-04-03T00:35:54;100943.06;;;1.18;62.68
22662;BME280;11497;52.222;21.246;2023-04-03T00:38:22;100937.06;;;1.19;62.88
22662;BME280;11497;52.222;21.246;2023-04-03T00:40:50;100942.22;;;1.19;62.75
22662;BME280;11497;52.222;21.246;2023-04-03T00:43:23;100938.75;;;1.17;62.90
22662;BME280;11497;52.222;21.246;2023-04-03T00:45:53;100945.53;;;1.10;62.73
22662;BME280;11497;52.222;21.246;2023-04-03T00:48:45;100942.06;;;1.07;62.82
22662;BME280;11497;52.222;21.246;2023-04-03T00:51:17;100941.97;;;1.00;62.97
22662;BME280;11497;52.222;21.246;2023-04-03T00:53:56;100941.88;;;0.94;63.43
22662;BME280;11497;52.222;21.246;2023-04-03T00:56:27;100941.91;;;0.96;62.86
22662;BME280;11497;52.222;21.246;2023-04-03T00:59:08;100956.25;;;0.79;63.10
22662;BME280;11497;52.222;21.246;2023-04-03T01:01:38;100953.56;;;0.71;63.45
22662;BME280;11497;52.222;21.246;2023-04-03T01:04:23;100934.44;;;0.57;63.36
22662;BME280;11497;52.222;21.246;2023-04-03T01:07:01;100957.03;;;0.73;63.75
22662;BME280;11497;52.222;21.246;2023-04-03T01:09:30;100956.88;;;0.64;63.71
22662;BME280;11497;52.222;21.246;2023-04-03T01:12:28;100957.69;;;0.61;63.68
22662;BME280;11497;52.222;21.246;2023-04-03T01:23:23;100971.19;;;0.47;64.10
22662;BME280;11497;52.222;21.246;2023-04-03T01:25:55;100972.03;;;0.46;63.99
22662;BME280;11497;52.222;21.246;2023-04-03T01:28:26;100981.25;;;0.31;64.13
22662;BME280;11497;52.222;21.246;2023-04-03T01:33:44;100981.38;;;0.39;63.83
22662;BME280;11497;52.222;21.246;2023-04-03T01:36:19;100993.25;;;0.31;63.67
22662;BME280;11497;52.222;21.246;2023-04-03T01:38:48;100997.53;;;0.30;63.72
22662;BME280;11497;52.222;21.246;2023-04-03T01:41:17;100994.81;;;0.23;63.74
22662;BME280;11497;52.222;21.246;2023-04-03T01:43:47;100990.53;;;0.23;63.72
22662;BME280;11497;52.222;21.246;2023-04-03T01:46:16;100992.25;;;0.24;63.55
22662;BME280;11497;52.222;21.246;2023-04-03T01:48:44;100995.63;;;0.20;63.66
22662;BME280;11497;52.222;21.246;2023-04-03T01:51:12;100995.38;;;0.08;63.74
22662;BME280;11497;52.222;21.246;2023-04-03T01:53:40;101002.16;;;0.03;64.18
22662;BME280;11497;52.222;21.246;2023-04-03T01:56:08;101012.53;;;0.08;63.85
22662;BME280;11497;52.222;21.246;2023-04-03T01:58:36;101010.69;;;-0.01;63.98
22662;BME280;11497;52.222;21.246;2023-04-03T02:01:04;101017.59;;;0.03;64.06
22662;BME280;11497;52.222;21.246;2023-04-03T02:03:33;101020.00;;;-0.06;64.52
22662;BME280;11497;52.222;21.246;2023-04-03T02:06:01;101019.03;;;-0.11;64.59
22662;BME280;11497;52.222;21.246;2023-04-03T02:08:28;101016.50;;;-0.10;64.13
22662;BME280;11497;52.222;21.246;2023-04-03T02:10:57;101017.31;;;-0.12;64.21
22662;BME280;11497;52.222;21.246;2023-04-03T02:13:24;101017.19;;;-0.18;64.87
22662;BME280;11497;52.222;21.246;2023-04-03T02:15:52;101024.06;;;-0.17;64.58
22662;BME280;11497;52.222;21.246;2023-04-03T02:18:20;101022.25;;;-0.21;64.58
22662;BME280;11497;52.222;21.246;2023-04-03T02:20:48;101023.28;;;-0.13;64.79
22662;BME280;11497;52.222;21.246;2023-04-03T02:23:16;101029.09;;;-0.23;65.02
22662;BME280;11497;52.222;21.246;2023-04-03T02:25:44;101022.84;;;-0.35;65.30
22662;BME280;11497;52.222;21.246;2023-04-03T02:28:12;101033.22;;;-0.30;65.48
22662;BME280;11497;52.222;21.246;2023-04-03T02:30:40;101032.22;;;-0.37;65.18
22662;BME280;11497;52.222;21.246;2023-04-03T02:33:08;101029.59;;;-0.40;65.75
22662;BME280;11497;52.222;21.246;2023-04-03T02:35:36;101026.06;;;-0.43;65.64
22662;BME280;11497;52.222;21.246;2023-04-03T02:38:04;101031.13;;;-0.49;65.96
22662;BME280;11497;52.222;21.246;2023-04-03T02:40:34;101029.56;;;-0.41;65.67
22662;BME280;11497;52.222;21.246;2023-04-03T02:43:02;101032.00;;;-0.49;66.28
22662;BME280;11497;52.222;21.246;2023-04-03T02:45:31;101030.19;;;-0.53;65.94
22662;BME280;11497;52.222;21.246;2023-04-03T02:47:59;101039.31;;;-0.65;66.50
22662;BME280;11497;52.222;21.246;2023-04-03T02:50:27;101032.50;;;-0.63;66.64
22662;BME280;11497;52.222;21.246;2023-04-03T02:52:55;101036.84;;;-0.61;66.34
22662;BME280;11497;52.222;21.246;2023-04-03T02:55:23;101038.66;;;-0.57;66.34
22662;BME280;11497;52.222;21.246;2023-04-03T02:57:53;101041.94;;;-0.64;67.08
22662;BME280;11497;52.222;21.246;2023-04-03T03:00:22;101039.94;;;-0.76;67.08
22662;BME280;11497;52.222;21.246;2023-04-03T03:02:50;101039.22;;;-0.70;67.50
22662;BME280;11497;52.222;21.246;2023-04-03T03:05:18;101039.06;;;-0.76;67.46
22662;BME280;11497;52.222;21.246;2023-04-03T03:07:46;101034.50;;;-0.89;67.46
22662;BME280;11497;52.222;21.246;2023-04-03T03:10:14;101031.28;;;-0.79;67.85
22662;BME280;11497;52.222;21.246;2023-04-03T03:12:42;101043.31;;;-0.78;67.84
22662;BME280;11497;52.222;21.246;2023-04-03T03:15:10;101038.16;;;-0.78;67.32
22662;BME280;11497;52.222;21.246;2023-04-03T03:17:38;101040.25;;;-0.99;67.88
22662;BME280;11497;52.222;21.246;2023-04-03T03:20:06;101043.66;;;-1.01;68.31
22662;BME280;11497;52.222;21.246;2023-04-03T03:22:35;101042.97;;;-0.93;68.31
22662;BME280;11497;52.222;21.246;2023-04-03T03:25:04;101042.03;;;-0.97;69.04
22662;BME280;11497;52.222;21.246;2023-04-03T03:27:33;101040.94;;;-1.07;69.45
22662;BME280;11497;52.222;21.246;2023-04-03T03:30:01;101045.25;;;-1.06;69.57
22662;BME280;11497;52.222;21.246;2023-04-03T03:32:29;101043.78;;;-1.29;69.85
22662;BME280;11497;52.222;21.246;2023-04-03T03:34:57;101044.19;;;-1.14;69.98
22662;BME280;11497;52.222;21.246;2023-04-03T03:37:24;101050.38;;;-1.06;70.07
22662;BME280;11497;52.222;21.246;2023-04-03T03:39:52;101046.56;;;-1.21;70.22
22662;BME280;11497;52.222;21.246;2023-04-03T03:42:20;101049.50;;;-1.06;70.28
22662;BME280;11497;52.222;21.246;2023-04-03T03:44:50;101056.75;;;-1.24;71.00
22662;BME280;11497;52.222;21.246;2023-04-03T03:47:20;101051.06;;;-1.13;70.37
22662;BME280;11497;52.222;21.246;2023-04-03T03:49:48;101061.25;;;-1.16;70.50
22662;BME280;11497;52.222;21.246;2023-04-03T03:52:16;101059.53;;;-1.17;70.68
22662;BME280;11497;52.222;21.246;2023-04-03T03:54:44;101058.91;;;-1.07;70.82
22662;BME280;11497;52.222;21.246;2023-04-03T03:57:12;101067.06;;;-1.23;70.71
22662;BME280;11497;52.222;21.246;2023-04-03T03:59:40;101067.31;;;-1.14;71.61
22662;BME280;11497;52.222;21.246;2023-04-03T04:02:10;101060.56;;;-1.09;71.13
22662;BME280;11497;52.222;21.246;2023-04-03T04:04:38;101064.72;;;-1.14;71.01
22662;BME280;11497;52.222;21.246;2023-04-03T04:07:06;101074.47;;;-1.35;71.96
22662;BME280;11497;52.222;21.246;2023-04-03T04:09:35;101069.47;;;-1.29;72.01
22662;BME280;11497;52.222;21.246;2023-04-03T04:12:03;101075.31;;;-1.36;72.44
22662;BME280;11497;52.222;21.246;2023-04-03T04:14:32;101072.03;;;-1.30;72.06
22662;BME280;11497;52.222;21.246;2023-04-03T04:17:01;101078.75;;;-1.36;72.81
22662;BME280;11497;52.222;21.246;2023-04-03T04:19:30;101078.63;;;-1.40;73.01
22662;BME280;11497;52.222;21.246;2023-04-03T04:21:58;101082.41;;;-1.26;72.69
22662;BME280;11497;52.222;21.246;2023-04-03T04:24:26;101094.44;;;-1.23;72.44
22662;BME280;11497;52.222;21.246;2023-04-03T04:26:56;101087.22;;;-1.05;71.95
22662;BME280;11497;52.222;21.246;2023-04-03T04:29:25;101081.28;;;-1.03;71.49
22662;BME280;11497;52.222;21.246;2023-04-03T04:31:53;101082.00;;;-1.08;71.90
22662;BME280;11497;52.222;21.246;2023-04-03T04:34:24;101098.91;;;-1.16;72.23
22662;BME280;11497;52.222;21.246;2023-04-03T04:36:52;101098.72;;;-1.24;72.69
22662;BME280;11497;52.222;21.246;2023-04-03T04:39:20;101093.91;;;-1.12;72.22
22662;BME280;11497;52.222;21.246;2023-04-03T04:41:48;101097.69;;;-0.97;71.87
22662;BME280;11497;52.222;21.246;2023-04-03T04:44:17;101101.09;;;-0.98;71.80
22662;BME280;11497;52.222;21.246;2023-04-03T04:46:44;101107.00;;;-1.01;72.07
22662;BME280;11497;52.222;21.246;2023-04-03T04:49:13;101105.44;;;-0.96;71.82
22662;BME280;11497;52.222;21.246;2023-04-03T04:51:41;101110.06;;;-0.81;71.28
22662;BME280;11497;52.222;21.246;2023-04-03T04:54:22;101114.41;;;-0.79;70.54
22662;BME280;11497;52.222;21.246;2023-04-03T04:56:51;101120.41;;;-0.78;70.76
22662;BME280;11497;52.222;21.246;2023-04-03T04:59:20;101114.41;;;-0.79;70.56
22662;BME280;11497;52.222;21.246;2023-04-03T05:01:50;101125.56;;;-0.78;70.31
22662;BME280;11497;52.222;21.246;2023-04-03T05:04:18;101126.50;;;-0.75;70.38
22662;BME280;11497;52.222;21.246;2023-04-03T05:06:50;101129.22;;;-0.31;70.36
22662;BME280;11497;52.222;21.246;2023-04-03T05:09:22;101116.94;;;-0.05;68.95
22662;BME280;11497;52.222;21.246;2023-04-03T05:11:52;101128.72;;;-0.16;69.12
22662;BME280;11497;52.222;21.246;2023-04-03T05:14:24;101130.16;;;-0.27;68.19
22662;BME280;11497;52.222;21.246;2023-04-03T05:16:53;101131.44;;;-0.48;68.10
22662;BME280;11497;52.222;21.246;2023-04-03T05:19:25;101141.44;;;-0.60;68.12
22662;BME280;11497;52.222;21.246;2023-04-03T05:21:52;101147.72;;;-0.10;68.61
22662;BME280;11497;52.222;21.246;2023-04-03T05:24:21;101137.81;;;0.99;67.02
22662;BME280;11497;52.222;21.246;2023-04-03T05:26:48;101139.19;;;3.43;62.76
22662;BME280;11497;52.222;21.246;2023-04-03T05:29:16;101143.00;;;2.12;61.10
22662;BME280;11497;52.222;21.246;2023-04-03T05:31:46;101143.66;;;2.68;60.28
22662;BME280;11497;52.222;21.246;2023-04-03T05:34:14;101145.16;;;1.82;60.71
22662;BME280;11497;52.222;21.246;2023-04-03T05:36:43;101147.00;;;2.57;60.24
22662;BME280;11497;52.222;21.246;2023-04-03T05:39:12;101146.69;;;3.14;59.32
22662;BME280;11497;52.222;21.246;2023-04-03T05:41:43;101147.25;;;3.89;57.42
22662;BME280;11497;52.222;21.246;2023-04-03T05:44:11;101155.47;;;5.43;55.77
22662;BME280;11497;52.222;21.246;2023-04-03T05:46:39;101149.28;;;6.21;52.52
22662;BME280;11497;52.222;21.246;2023-04-03T05:49:09;101159.19;;;7.17;50.57
22662;BME280;11497;52.222;21.246;2023-04-03T05:51:39;101161.66;;;7.34;48.04
22662;BME280;11497;52.222;21.246;2023-04-03T05:54:19;101155.34;;;6.17;47.82
22662;BME280;11497;52.222;21.246;2023-04-03T05:56:52;101162.34;;;5.82;48.19
22662;BME280;11497;52.222;21.246;2023-04-03T05:59:21;101149.97;;;6.66;47.25
22662;BME280;11497;52.222;21.246;2023-04-03T06:01:52;101164.53;;;7.97;45.56
22662;BME280;11497;52.222;21.246;2023-04-03T06:04:21;101165.31;;;8.80;43.76
22662;BME280;11497;52.222;21.246;2023-04-03T06:06:54;101162.59;;;8.19;42.73
22662;BME280;11497;52.222;21.246;2023-04-03T06:09:24;101171.75;;;8.55;42.59
22662;BME280;11497;52.222;21.246;2023-04-03T06:11:53;101161.81;;;7.11;42.61
22662;BME280;11497;52.222;21.246;2023-04-03T06:14:23;101163.75;;;6.83;43.52
22662;BME280;11497;52.222;21.246;2023-04-03T06:16:51;101169.19;;;7.66;43.43
22662;BME280;11497;52.222;21.246;2023-04-03T06:19:20;101174.16;;;8.67;42.35
22662;BME280;11497;52.222;21.246;2023-04-03T06:21:51;101167.13;;;8.00;41.63
22662;BME280;11497;52.222;21.246;2023-04-03T06:24:20;101183.16;;;8.45;41.17
22662;BME280;11497;52.222;21.246;2023-04-03T06:26:49;101187.88;;;8.11;40.80
22662;BME280;11497;52.222;21.246;2023-04-03T06:29:19;101178.81;;;7.58;41.46
22662;BME280;11497;52.222;21.246;2023-04-03T06:31:47;101178.72;;;7.72;40.95
22662;BME280;11497;52.222;21.246;2023-04-03T06:34:15;101195.53;;;7.34;40.68
22662;BME280;11497;52.222;21.246;2023-04-03T06:36:43;101188.25;;;6.33;41.64
22662;BME280;11497;52.222;21.246;2023-04-03T06:39:17;101186.38;;;6.67;42.19
22662;BME280;11497;52.222;21.246;2023-04-03T06:41:47;101190.81;;;6.40;42.65
22662;BME280;11497;52.222;21.246;2023-04-03T06:44:17;101191.81;;;6.02;42.88
22662;BME280;11497;52.222;21.246;2023-04-03T06:46:44;101187.47;;;5.34;43.88
22662;BME280;11497;52.222;21.246;2023-04-03T06:49:14;101191.75;;;4.95;44.41
22662;BME280;11497;52.222;21.246;2023-04-03T06:51:42;101198.56;;;4.63;45.24
22662;BME280;11497;52.222;21.246;2023-04-03T06:54:10;101191.66;;;4.65;45.24
22662;BME280;11497;52.222;21.246;2023-04-03T06:56:38;101196.81;;;4.56;46.22
22662;BME280;11497;52.222;21.246;2023-04-03T06:59:06;101196.91;;;4.91;46.29
22662;BME280;11497;52.222;21.246;2023-04-03T07:01:33;101193.41;;;4.78;46.02
22662;BME280;11497;52.222;21.246;2023-04-03T07:04:02;101203.78;;;4.66;46.64
22662;BME280;11497;52.222;21.246;2023-04-03T07:06:29;101211.56;;;4.67;46.55
22662;BME280;11497;52.222;21.246;2023-04-03T07:08:59;101205.66;;;5.80;46.29
22662;BME280;11497;52.222;21.246;2023-04-03T07:11:26;101205.47;;;6.62;45.50
22662;BME280;11497;52.222;21.246;2023-04-03T07:13:54;101208.34;;;7.58;43.97
22662;BME280;11497;52.222;21.246;2023-04-03T07:16:23;101217.03;;;7.57;42.71
22662;BME280;11497;52.222;21.246;2023-04-03T07:18:51;101215.19;;;7.72;42.36
22662;BME280;11497;52.222;21.246;2023-04-03T07:21:19;101212.72;;;8.47;41.15
22662;BME280;11497;52.222;21.246;2023-04-03T07:23:47;101216.25;;;8.40;41.06
22662;BME280;11497;52.222;21.246;2023-04-03T07:26:15;101227.28;;;8.64;40.26
22662;BME280;11497;52.222;21.246;2023-04-03T07:28:43;101224.13;;;8.32;39.84
22662;BME280;11497;52.222;21.246;2023-04-03T07:31:11;101227.06;;;8.01;39.76
22662;BME280;11497;52.222;21.246;2023-04-03T07:33:41;101232.72;;;7.50;39.72
22662;BME280;11497;52.222;21.246;2023-04-03T07:36:11;101225.19;;;7.07;39.96
22662;BME280;11497;52.222;21.246;2023-04-03T07:38:42;101235.91;;;7.84;40.03
22662;BME280;11497;52.222;21.246;2023-04-03T07:41:17;101228.88;;;7.92;39.46
22662;BME280;11497;52.222;21.246;2023-04-03T07:43:45;101235.41;;;9.09;38.42
22662;BME280;11497;52.222;21.246;2023-04-03T07:46:13;101237.38;;;10.52;37.38
22662;BME280;11497;52.222;21.246;2023-04-03T07:48:41;101241.47;;;10.20;35.98
22662;BME280;11497;52.222;21.246;2023-04-03T07:51:09;101232.19;;;10.01;34.89
22662;BME280;11497;52.222;21.246;2023-04-03T07:53:38;101250.78;;;10.37;35.03
22662;BME280;11497;52.222;21.246;2023-04-03T07:56:06;101237.88;;;9.17;34.51
22662;BME280;11497;52.222;21.246;2023-04-03T07:58:33;101233.41;;;9.82;34.51
22662;BME280;11497;52.222;21.246;2023-04-03T08:01:01;101225.19;;;11.31;34.10
22662;BME280;11497;52.222;21.246;2023-04-03T08:03:29;101238.66;;;11.90;33.25
22662;BME280;11497;52.222;21.246;2023-04-03T08:06:01;101225.34;;;12.30;31.71
22662;BME280;11497;52.222;21.246;2023-04-03T08:08:29;101226.50;;;12.52;30.86
22662;BME280;11497;52.222;21.246;2023-04-03T08:10:57;101239.09;;;12.07;31.15
22662;BME280;11497;52.222;21.246;2023-04-03T08:13:26;101224.56;;;11.58;31.05
22662;BME280;11497;52.222;21.246;2023-04-03T08:15:53;101237.06;;;12.80;30.28
22662;BME280;11497;52.222;21.246;2023-04-03T08:18:21;101245.69;;;13.13;29.53
22662;BME280;11497;52.222;21.246;2023-04-03T08:20:51;101238.97;;;11.76;29.21
22662;BME280;11497;52.222;21.246;2023-04-03T08:23:19;101238.44;;;12.93;29.19
22662;BME280;11497;52.222;21.246;2023-04-03T08:25:47;101243.28;;;11.03;29.43
22662;BME280;11497;52.222;21.246;2023-04-03T08:28:15;101242.72;;;10.89;29.95
22662;BME280;11497;52.222;21.246;2023-04-03T08:30:42;101249.41;;;11.42;30.12
22662;BME280;11497;52.222;21.246;2023-04-03T08:33:10;101242.66;;;12.05;29.65
22662;BME280;11497;52.222;21.246;2023-04-03T08:35:39;101253.63;;;12.82;29.81
22662;BME280;11497;52.222;21.246;2023-04-03T08:38:08;101241.78;;;13.82;28.73
22662;BME280;11497;52.222;21.246;2023-04-03T08:40:35;101246.84;;;12.75;27.59
22662;BME280;11497;52.222;21.246;2023-04-03T08:45:48;101240.28;;;13.47;26.95
22662;BME280;11497;52.222;21.246;2023-04-03T08:48:19;101244.69;;;14.26;26.52
22662;BME280;11497;52.222;21.246;2023-04-03T08:50:50;101242.97;;;15.42;26.42
22662;BME280;11497;52.222;21.246;2023-04-03T08:53:25;101248.59;;;14.14;25.49
22662;BME280;11497;52.222;21.246;2023-04-03T08:55:55;101244.22;;;11.39;27.12
22662;BME280;11497;52.222;21.246;2023-04-03T08:58:29;101250.13;;;11.86;27.64
22662;BME280;11497;52.222;21.246;2023-04-03T09:03:29;101244.56;;;14.54;25.88
22662;BME280;11497;52.222;21.246;2023-04-03T09:06:04;101243.25;;;15.57;25.49
22662;BME280;11497;52.222;21.246;2023-04-03T09:15:20;101259.88;;;11.42;26.45
22662;BME280;11497;52.222;21.246;2023-04-03T09:22:27;101247.66;;;13.07;26.31
22662;BME280;11497;52.222;21.246;2023-04-03T09:25:10;101251.28;;;12.73;25.94
22662;BME280;11497;52.222;21.246;2023-04-03T09:27:40;101253.69;;;12.50;26.38
22662;BME280;11497;52.222;21.246;2023-04-03T09:30:15;101264.97;;;11.87;26.82
22662;BME280;11497;52.222;21.246;2023-04-03T09:32:46;101260.25;;;9.36;27.91
22662;BME280;11497;52.222;21.246;2023-04-03T09:40:39;101263.13;;;10.28;28.48
22662;BME280;11497;52.222;21.246;2023-04-03T09:45:46;101275.63;;;8.13;29.94
22662;BME280;11497;52.222;21.246;2023-04-03T09:53:36;101270.53;;;9.50;29.05
22662;BME280;11497;52.222;21.246;2023-04-03T09:58:45;101263.53;;;10.52;28.79
22662;BME280;11497;52.222;21.246;2023-04-03T10:01:22;101279.44;;;9.35;29.21
22662;BME280;11497;52.222;21.246;2023-04-03T10:04:02;101274.69;;;9.60;29.20
22662;BME280;11497;52.222;21.246;2023-04-03T10:06:31;101261.53;;;10.18;29.50
22662;BME280;11497;52.222;21.246;2023-04-03T10:09:00;101270.25;;;10.20;28.98
22662;BME280;11497;52.222;21.246;2023-04-03T10:11:28;101265.91;;;10.19;28.90
22662;BME280;11497;52.222;21.246;2023-04-03T10:13:57;101276.75;;;10.46;28.97
22662;BME280;11497;52.222;21.246;2023-04-03T10:16:32;101275.56;;;9.00;29.32
22662;BME280;11497;52.222;21.246;2023-04-03T10:19:06;101273.66;;;9.12;29.75
22662;BME280;11497;52.222;21.246;2023-04-03T10:21:55;101271.56;;;8.69;29.54
22662;BME280;11497;52.222;21.246;2023-04-03T10:24:26;101267.66;;;7.14;30.42
22662;BME280;11497;52.222;21.246;2023-04-03T10:27:02;101261.91;;;6.34;31.28
22662;BME280;11497;52.222;21.246;2023-04-03T10:29:40;101261.09;;;5.97;32.40
22662;BME280;11497;52.222;21.246;2023-04-03T10:35:44;101267.13;;;5.50;33.54
22662;BME280;11497;52.222;21.246;2023-04-03T10:41:03;101261.91;;;5.75;33.78
22662;BME280;11497;52.222;21.246;2023-04-03T10:48:59;101258.44;;;5.69;34.77
22662;BME280;11497;52.222;21.246;2023-04-03T10:51:41;101265.38;;;6.22;35.01
22662;BME280;11497;52.222;21.246;2023-04-03T10:54:12;101257.50;;;6.56;34.68
22662;BME280;11497;52.222;21.246;2023-04-03T10:59:25;101254.03;;;6.54;34.34
22662;BME280;11497;52.222;21.246;2023-04-03T11:01:56;101269.69;;;6.36;34.56
22662;BME280;11497;52.222;21.246;2023-04-03T11:04:26;101257.56;;;6.31;34.71
22662;BME280;11497;52.222;21.246;2023-04-03T11:09:27;101253.84;;;6.98;34.70
22662;BME280;11497;52.222;21.246;2023-04-03T11:11:58;101253.81;;;7.09;34.53
22662;BME280;11497;52.222;21.246;2023-04-03T11:14:31;101259.22;;;6.60;34.76
22662;BME280;11497;52.222;21.246;2023-04-03T11:20:01;101251.53;;;6.10;34.93
22662;BME280;11497;52.222;21.246;2023-04-03T11:22:35;101255.84;;;5.44;34.83
22662;BME280;11497;52.222;21.246;2023-04-03T11:27:55;101259.31;;;5.68;35.69
22662;BME280;11497;52.222;21.246;2023-04-03T11:30:33;101255.84;;;6.30;35.38
22662;BME280;11497;52.222;21.246;2023-04-03T11:35:42;101246.34;;;5.85;34.94
22662;BME280;11497;52.222;21.246;2023-04-03T11:38:45;101247.22;;;5.55;35.00
22662;BME280;11497;52.222;21.246;2023-04-03T11:41:15;101235.13;;;6.00;35.20
22662;BME280;11497;52.222;21.246;2023-04-03T11:43:55;101236.84;;;5.98;35.06
22662;BME280;11497;52.222;21.246;2023-04-03T11:46:51;101221.19;;;6.28;35.33
22662;BME280;11497;52.222;21.246;2023-04-03T11:52:11;101235.94;;;5.81;35.20
22662;BME280;11497;52.222;21.246;2023-04-03T11:54:45;101232.50;;;5.85;35.28
22662;BME280;11497;52.222;21.246;2023-04-03T11:57:41;101235.94;;;5.76;35.58
22662;BME280;11497;52.222;21.246;2023-04-03T12:11:21;101224.72;;;5.97;35.45
22662;BME280;11497;52.222;21.246;2023-04-03T12:16:22;101232.44;;;6.29;34.61
22662;BME280;11497;52.222;21.246;2023-04-03T12:29:20;101221.16;;;6.44;34.21
22662;BME280;11497;52.222;21.246;2023-04-03T12:37:05;101224.50;;;6.73;33.80
22662;BME280;11497;52.222;21.246;2023-04-03T12:39:52;101232.41;;;6.46;34.02
22662;BME280;11497;52.222;21.246;2023-04-03T12:47:29;101226.38;;;6.41;35.37
22662;BME280;11497;52.222;21.246;2023-04-03T12:50:00;101227.09;;;6.73;34.49
22662;BME280;11497;52.222;21.246;2023-04-03T12:52:44;101228.75;;;6.91;34.47
22662;BME280;11497;52.222;21.246;2023-04-03T12:55:16;101223.44;;;7.06;34.75
22662;BME280;11497;52.222;21.246;2023-04-03T12:57:44;101224.31;;;7.07;34.29
22662;BME280;11497;52.222;21.246;2023-04-03T13:00:27;101215.81;;;6.74;34.24
22662;BME280;11497;52.222;21.246;2023-04-03T13:02:55;101240.25;;;6.30;33.90
22662;BME280;11497;52.222;21.246;2023-04-03T13:05:23;101225.59;;;5.91;34.11
22662;BME280;11497;52.222;21.246;2023-04-03T13:08:02;101222.09;;;5.86;34.71
22662;BME280;11497;52.222;21.246;2023-04-03T13:10:31;101216.06;;;5.89;34.16
22662;BME280;11497;52.222;21.246;2023-04-03T13:13:06;101218.63;;;5.80;34.27
22662;BME280;11497;52.222;21.246;2023-04-03T13:15:43;101218.63;;;5.67;34.67
22662;BME280;11497;52.222;21.246;2023-04-03T13:18:29;101228.19;;;5.93;35.13
22662;BME280;11497;52.222;21.246;2023-04-03T13:23:45;101225.59;;;5.96;35.61
22662;BME280;11497;52.222;21.246;2023-04-03T13:26:15;101231.66;;;5.98;36.08
22662;BME280;11497;52.222;21.246;2023-04-03T13:28:43;101224.63;;;6.37;35.80
22662;BME280;11497;52.222;21.246;2023-04-03T13:33:43;101232.41;;;6.44;35.04
22662;BME280;11497;52.222;21.246;2023-04-03T13:36:20;101215.88;;;6.59;34.78
22662;BME280;11497;52.222;21.246;2023-04-03T13:38:59;101216.03;;;6.07;34.24
22662;BME280;11497;52.222;21.246;2023-04-03T13:41:32;101215.16;;;5.68;34.26
22662;BME280;11497;52.222;21.246;2023-04-03T13:46:53;101223.78;;;5.22;34.59
22662;BME280;11497;52.222;21.246;2023-04-03T13:51:49;101216.91;;;5.66;35.04
22662;BME280;11497;52.222;21.246;2023-04-03T13:57:01;101225.56;;;5.68;35.15
22662;BME280;11497;52.222;21.246;2023-04-03T13:59:35;101213.47;;;5.57;35.73
22662;BME280;11497;52.222;21.246;2023-04-03T14:04:32;101229.88;;;5.85;35.60
22662;BME280;11497;52.222;21.246;2023-04-03T14:07:00;101226.47;;;5.95;35.86
22662;BME280;11497;52.222;21.246;2023-04-03T14:09:27;101216.06;;;5.95;35.98
22662;BME280;11497;52.222;21.246;2023-04-03T14:11:57;101221.22;;;5.86;35.49
22662;BME280;11497;52.222;21.246;2023-04-03T14:14:27;101222.09;;;5.79;35.63
22662;BME280;11497;52.222;21.246;2023-04-03T14:16:56;101230.78;;;5.97;35.74
22662;BME280;11497;52.222;21.246;2023-04-03T14:19:31;101218.66;;;6.03;35.83
22662;BME280;11497;52.222;21.246;2023-04-03T14:22:00;101228.16;;;6.11;35.82
22662;BME280;11497;52.222;21.246;2023-04-03T14:24:28;101224.69;;;5.82;35.84
22662;BME280;11497;52.222;21.246;2023-04-03T14:26:56;101219.50;;;5.79;35.73
22662;BME280;11497;52.222;21.246;2023-04-03T14:29:24;101226.44;;;5.86;36.02
22662;BME280;11497;52.222;21.246;2023-04-03T14:31:52;101217.78;;;5.61;36.05
22662;BME280;11497;52.222;21.246;2023-04-03T14:34:34;101220.38;;;5.76;36.55
22662;BME280;11497;52.222;21.246;2023-04-03T14:37:01;101222.97;;;5.78;37.11
22662;BME280;11497;52.222;21.246;2023-04-03T14:39:29;101221.25;;;6.01;36.49
22662;BME280;11497;52.222;21.246;2023-04-03T14:41:58;101216.03;;;6.10;36.63
22662;BME280;11497;52.222;21.246;2023-04-03T14:44:25;101223.84;;;6.04;36.52
22662;BME280;11497;52.222;21.246;2023-04-03T14:46:53;101216.03;;;6.07;36.58
22662;BME280;11497;52.222;21.246;2023-04-03T14:49:24;101227.31;;;6.05;36.37
22662;BME280;11497;52.222;21.246;2023-04-03T14:51:53;101229.03;;;5.69;36.36
22662;BME280;11497;52.222;21.246;2023-04-03T14:54:21;101234.25;;;5.60;36.76
22662;BME280;11497;52.222;21.246;2023-04-03T14:56:53;101231.63;;;5.40;36.68
22662;BME280;11497;52.222;21.246;2023-04-03T14:59:22;101234.22;;;5.57;37.16
22662;BME280;11497;52.222;21.246;2023-04-03T15:01:50;101233.34;;;5.67;36.74
22662;BME280;11497;52.222;21.246;2023-04-03T15:04:19;101224.69;;;5.63;37.15